createdAt,value
2023-04-07T00:00:56.253Z,74.19
2023-04-07T00:05:59.106Z,74.14
2023-04-07T00:11:02.068Z,74.52
2023-04-07T00:16:06.696Z,74.63
2023-04-07T00:21:09.739Z,74.49
2023-04-07T00:26:12.634Z,74.60
2023-04-07T00:31:19.585Z,75.01
2023-04-07T00:36:22.915Z,74.33
2023-04-07T00:41:26.120Z,74.29
2023-04-07T00:46:30.475Z,74.61
2023-04-07T00:51:33.651Z,75.68
2023-04-07T00:56:36.581Z,75.44
2023-04-07T01:01:47.006Z,75.64
2023-04-07T01:06:53.953Z,75.71
2023-04-07T01:12:08.962Z,75.79
2023-04-07T01:17:15.624Z,75.84
2023-04-07T01:22:27.712Z,76.08
2023-04-07T01:27:39.529Z,76.03
2023-04-07T01:32:48.042Z,76.52
2023-04-07T01:37:54.421Z,77.14
2023-04-07T01:42:58.266Z,76.69
2023-04-07T01:48:02.736Z,76.59
2023-04-07T01:53:06.388Z,76.79
2023-04-07T01:58:09.365Z,76.51
2023-04-07T02:03:24.494Z,76.12
2023-04-07T02:08:31.188Z,77.37
2023-04-07T02:13:36.362Z,77.23
2023-04-07T02:18:42.272Z,76.97
2023-04-07T02:23:45.384Z,77.50
2023-04-07T02:28:49.100Z,77.47
2023-04-07T02:33:55.134Z,77.92
2023-04-07T02:38:58.183Z,77.52
2023-04-07T02:44:01.136Z,77.40
2023-04-07T02:49:05.444Z,77.83
2023-04-07T02:54:08.344Z,77.82
2023-04-07T02:59:11.253Z,77.81
2023-04-07T03:04:19.853Z,78.05
2023-04-07T03:09:23.037Z,78.17
2023-04-07T03:14:25.946Z,78.54
2023-04-07T03:19:30.552Z,79.66
2023-04-07T03:24:33.468Z,78.92
2023-04-07T03:29:37.918Z,78.67
2023-04-07T03:34:45.312Z,78.76
2023-04-07T03:39:50.920Z,79.09
2023-04-07T03:45:01.630Z,78.52
2023-04-07T03:50:07.821Z,78.80
2023-04-07T03:55:19.238Z,78.77
2023-04-07T04:00:23.217Z,79.02
2023-04-07T04:05:41.600Z,79.00
2023-04-07T04:10:52.176Z,79.58
2023-04-07T04:15:55.535Z,79.13
2023-04-07T04:20:59.915Z,78.96
2023-04-07T04:26:03.976Z,79.01
2023-04-07T04:31:08.813Z,79.02
2023-04-07T04:36:17.985Z,79.16
2023-04-07T04:41:22.046Z,79.57
2023-04-07T04:46:27.572Z,79.68
2023-04-07T04:51:32.190Z,79.78
2023-04-07T04:56:42.779Z,79.41
2023-04-07T05:01:46.849Z,79.78
2023-04-07T05:06:54.025Z,79.78
2023-04-07T05:12:02.544Z,78.63
2023-04-07T05:17:09.919Z,78.30
2023-04-07T05:22:15.482Z,77.79
2023-04-07T05:27:22.349Z,78.37
2023-04-07T05:32:29.961Z,76.39
2023-04-07T05:37:36.482Z,74.44
2023-04-07T05:42:41.457Z,70.13
2023-04-07T05:47:44.512Z,70.39
2023-04-07T05:52:49.385Z,67.25
2023-04-07T05:57:58.129Z,71.33
2023-04-07T06:03:05.385Z,73.22
2023-04-07T06:08:19.936Z,72.66
2023-04-07T06:13:22.850Z,72.87
2023-04-07T06:18:26.021Z,73.42
2023-04-07T06:23:30.301Z,69.11
2023-04-07T06:28:33.486Z,63.04
2023-04-07T06:33:36.690Z,61.58
2023-04-07T06:38:41.127Z,58.76
2023-04-07T06:43:44.595Z,57.08
2023-04-07T06:48:47.685Z,57.99
2023-04-07T06:53:51.935Z,57.85
2023-04-07T06:58:54.977Z,54.76
2023-04-07T07:03:58.013Z,52.73
2023-04-07T07:09:03.233Z,53.27
2023-04-07T07:14:06.196Z,51.05
2023-04-07T07:19:09.590Z,52.08
2023-04-07T07:24:13.933Z,49.75
2023-04-07T07:29:17.028Z,51.61
2023-04-07T07:34:19.960Z,53.86
2023-04-07T07:39:24.228Z,52.06
2023-04-07T07:44:27.187Z,51.80
2023-04-07T07:49:30.087Z,51.96
2023-04-07T07:54:34.415Z,50.58
2023-04-07T07:59:37.313Z,48.46
2023-04-07T08:04:40.467Z,43.26
2023-04-07T08:09:44.828Z,40.55
2023-04-07T08:14:47.751Z,39.62
2023-04-07T08:19:50.752Z,41.36
2023-04-07T08:24:55.070Z,45.44
2023-04-07T08:30:06.952Z,46.50
2023-04-07T08:35:10.433Z,45.26
2023-04-07T08:40:15.514Z,45.64
2023-04-07T08:45:19.707Z,43.19
2023-04-07T08:50:23.711Z,42.14
2023-04-07T08:55:28.109Z,44.46
2023-04-07T09:00:31.889Z,44.79
2023-04-07T09:05:35.784Z,45.29
2023-04-07T09:10:40.053Z,44.85
2023-04-07T09:15:43.448Z,44.09
2023-04-07T09:21:00.106Z,43.26
2023-04-07T09:26:22.281Z,41.79
2023-04-07T09:31:44.261Z,41.60
2023-04-07T09:36:47.209Z,42.65
2023-04-07T09:41:52.077Z,41.63
2023-04-07T09:46:57.576Z,43.85
2023-04-07T09:52:04.977Z,42.00
2023-04-07T09:57:11.155Z,42.67
2023-04-07T10:02:14.154Z,43.42
2023-04-07T10:07:17.114Z,42.69
2023-04-07T10:12:21.710Z,42.91
2023-04-07T10:17:25.719Z,44.33
2023-04-07T10:22:29.904Z,42.05
2023-04-07T10:27:38.060Z,42.03
2023-04-07T10:32:49.018Z,41.13
2023-04-07T10:38:11.684Z,40.76
2023-04-07T10:43:44.990Z,40.56
2023-04-07T10:49:09.880Z,38.68
2023-04-07T10:54:22.526Z,38.66
2023-04-07T10:59:27.892Z,39.31
2023-04-07T11:04:38.194Z,38.84
2023-04-07T11:09:42.341Z,40.04
2023-04-07T11:14:46.981Z,42.26
2023-04-07T11:19:53.378Z,38.83
2023-04-07T11:24:56.341Z,37.77
2023-04-07T11:30:00.655Z,39.09
2023-04-07T11:35:07.876Z,37.36
2023-04-07T11:40:12.927Z,39.28
2023-04-07T11:45:20.851Z,39.00
2023-04-07T11:50:43.342Z,38.18
2023-04-07T11:55:46.572Z,38.44
2023-04-07T12:00:57.787Z,37.93
2023-04-07T12:06:01.068Z,37.25
2023-04-07T12:11:05.431Z,37.12
2023-04-07T12:16:10.366Z,39.71
2023-04-07T12:21:13.284Z,38.94
2023-04-07T12:26:16.933Z,36.19
2023-04-07T12:31:21.735Z,36.60
2023-04-07T12:36:27.469Z,36.81
2023-04-07T12:41:31.400Z,36.52
2023-04-07T12:46:35.674Z,36.63
2023-04-07T12:51:40.098Z,37.60
2023-04-07T12:56:43.511Z,38.41
2023-04-07T13:01:50.279Z,37.97
2023-04-07T13:06:54.276Z,40.99
2023-04-07T13:11:57.970Z,39.71
2023-04-07T13:17:02.296Z,39.98
2023-04-07T13:22:06.287Z,39.40
2023-04-07T13:27:09.565Z,40.69
2023-04-07T13:32:14.930Z,42.00
2023-04-07T13:37:19.506Z,43.29
2023-04-07T13:42:22.484Z,44.16
2023-04-07T13:47:27.001Z,42.52
2023-04-07T13:52:29.979Z,40.48
2023-04-07T13:57:32.988Z,42.09
2023-04-07T14:02:37.376Z,41.32
2023-04-07T14:07:40.348Z,41.63
2023-04-07T14:12:43.240Z,41.84
2023-04-07T14:17:47.491Z,41.50
2023-04-07T14:22:50.442Z,41.04
2023-04-07T14:27:53.410Z,41.06
2023-04-07T14:32:57.794Z,41.80
2023-04-07T14:38:00.729Z,41.79
2023-04-07T14:43:07.347Z,42.61
2023-04-07T14:48:12.245Z,41.64
2023-04-07T14:53:15.934Z,42.88
2023-04-07T14:58:18.946Z,42.85
2023-04-07T15:03:23.545Z,44.18
2023-04-07T15:08:26.581Z,44.49
2023-04-07T15:13:30.463Z,46.00
2023-04-07T15:18:34.974Z,45.88
2023-04-07T15:23:38.781Z,46.31
2023-04-07T15:28:41.744Z,47.30
2023-04-07T15:33:46.680Z,47.97
2023-04-07T15:38:49.834Z,47.42
2023-04-07T15:43:52.783Z,46.02
2023-04-07T15:48:57.066Z,48.11
2023-04-07T15:54:01.100Z,47.89
2023-04-07T15:59:04.206Z,47.57
2023-04-07T16:04:08.615Z,48.34
2023-04-07T16:09:11.747Z,48.86
2023-04-07T16:14:14.677Z,49.18
2023-04-07T16:19:18.991Z,49.12
2023-04-07T16:24:21.951Z,50.52
2023-04-07T16:29:24.952Z,50.95
2023-04-07T16:34:30.361Z,50.57
2023-04-07T16:39:33.378Z,52.94
2023-04-07T16:44:36.343Z,53.58
2023-04-07T16:49:41.056Z,54.36
2023-04-07T16:54:44.058Z,55.39
2023-04-07T16:59:48.439Z,55.22
2023-04-07T17:04:52.665Z,55.37
2023-04-07T17:09:55.568Z,56.38
2023-04-07T17:14:58.515Z,56.66
2023-04-07T17:20:03.543Z,55.78
2023-04-07T17:25:07.358Z,56.77
2023-04-07T17:30:10.985Z,57.01
2023-04-07T17:35:15.240Z,58.35
2023-04-07T17:40:18.152Z,58.50
2023-04-07T17:45:21.537Z,57.84
2023-04-07T17:50:25.860Z,60.21
2023-04-07T17:55:29.039Z,62.39
2023-04-07T18:00:31.902Z,63.09
2023-04-07T18:05:37.694Z,62.37
2023-04-07T18:10:40.969Z,63.39
2023-04-07T18:15:43.918Z,63.52
2023-04-07T18:20:48.180Z,65.89
2023-04-07T18:25:51.663Z,68.30
2023-04-07T18:31:01.879Z,69.82
2023-04-07T18:36:08.260Z,70.35
2023-04-07T18:41:14.149Z,71.32
2023-04-07T18:46:17.187Z,71.19
2023-04-07T18:51:21.859Z,72.01
2023-04-07T18:56:27.308Z,74.80
2023-04-07T19:01:30.457Z,74.98
2023-04-07T19:06:35.811Z,75.38
2023-04-07T19:11:38.740Z,75.93
2023-04-07T19:16:44.449Z,78.97
2023-04-07T19:21:48.866Z,83.24
2023-04-07T19:26:52.640Z,82.13
2023-04-07T19:31:57.358Z,85.44
2023-04-07T19:37:01.697Z,86.45
2023-04-07T19:42:04.787Z,88.82
2023-04-07T19:47:07.852Z,89.33
2023-04-07T19:52:12.260Z,92.03
2023-04-07T19:57:16.402Z,92.57
2023-04-07T20:02:19.343Z,93.06
2023-04-07T20:07:23.745Z,94.20
2023-04-07T20:12:26.677Z,93.28
2023-04-07T20:17:29.715Z,95.14
2023-04-07T20:22:35.463Z,92.04
2023-04-07T20:27:39.797Z,91.91
2023-04-07T20:32:43.444Z,94.10
2023-04-07T20:37:47.793Z,92.38
2023-04-07T20:42:50.712Z,94.61
2023-04-07T20:47:53.858Z,95.64
2023-04-07T20:52:58.431Z,96.23
2023-04-07T20:58:01.441Z,95.36
2023-04-07T21:03:04.647Z,95.00
2023-04-07T21:08:09.177Z,94.55
2023-04-07T21:13:12.117Z,96.09
2023-04-07T21:18:15.124Z,94.34
2023-04-07T21:23:19.605Z,97.10
2023-04-07T21:28:22.533Z,97.85
2023-04-07T21:33:25.909Z,98.16
2023-04-07T21:38:31.141Z,98.91
2023-04-07T21:43:34.658Z,99.41
2023-04-07T21:48:37.612Z,100.00
2023-04-07T21:53:41.981Z,100.00
2023-04-07T21:58:46.533Z,100.00
2023-04-07T22:03:49.814Z,100.00
2023-04-07T22:09:01.186Z,100.00
2023-04-07T22:14:05.373Z,100.00
2023-04-07T22:19:08.403Z,100.00
2023-04-07T22:24:12.706Z,100.00
2023-04-07T22:29:15.617Z,100.00
2023-04-07T22:34:19.187Z,100.00
2023-04-07T22:39:23.691Z,100.00
2023-04-07T22:44:26.570Z,100.00
2023-04-07T22:49:30.673Z,100.00
2023-04-07T22:54:34.941Z,100.00
2023-04-07T22:59:38.474Z,100.00
2023-04-07T23:04:41.384Z,100.00
2023-04-07T23:09:46.280Z,100.00
2023-04-07T23:14:49.174Z,100.00
2023-04-07T23:19:52.060Z,100.00
2023-04-07T23:24:56.887Z,100.00
2023-04-07T23:29:59.809Z,100.00
2023-04-07T23:35:02.743Z,100.00
2023-04-07T23:40:08.508Z,100.00
2023-04-07T23:45:12.155Z,100.00
2023-04-07T23:50:15.122Z,100.00
2023-04-07T23:55:19.496Z,100.00
